sensor_id;sensor_type;location;lat;lon;timestamp;P1;durP1;ratioP1;P2;durP2;ratioP2
2860;SDS011;1438;50.922;6.704;2023-02-01T00:00:16;26.55;;;10.80;;
2860;SDS011;1438;50.922;6.704;2023-02-01T00:02:42;18.83;;;9.50;;
2860;SDS011;1438;50.922;6.704;2023-02-01T00:05:09;27.43;;;10.10;;
2860;SDS011;1438;50.922;6.704;2023-02-01T00:07:35;19.00;;;9.95;;
2860;SDS011;1438;50.922;6.704;2023-02-01T00:10:02;21.85;;;10.13;;
2860;SDS011;1438;50.922;6.704;2023-02-01T00:12:29;21.40;;;8.75;;
2860;SDS011;1438;50.922;6.704;2023-02-01T00:14:55;17.40;;;9.50;;
2860;SDS011;1438;50.922;6.704;2023-02-01T00:17:21;12.38;;;7.78;;
2860;SDS011;1438;50.922;6.704;2023-02-01T00:19:47;19.60;;;8.77;;
2860;SDS011;1438;50.922;6.704;2023-02-01T00:22:13;18.37;;;7.47;;
2860;SDS011;1438;50.922;6.704;2023-02-01T00:24:39;19.43;;;7.77;;
2860;SDS011;1438;50.922;6.704;2023-02-01T00:27:05;19.60;;;6.93;;
2860;SDS011;1438;50.922;6.704;2023-02-01T00:29:31;16.27;;;6.10;;
2860;SDS011;1438;50.922;6.704;2023-02-01T00:31:57;18.93;;;7.07;;
2860;SDS011;1438;50.922;6.704;2023-02-01T00:34:23;16.10;;;5.53;;
2860;SDS011;1438;50.922;6.704;2023-02-01T00:36:49;16.02;;;5.90;;
2860;SDS011;1438;50.922;6.704;2023-02-01T00:39:15;12.63;;;5.30;;
2860;SDS011;1438;50.922;6.704;2023-02-01T00:41:41;17.55;;;6.60;;
2860;SDS011;1438;50.922;6.704;2023-02-01T00:44:07;17.08;;;5.53;;
2860;SDS011;1438;50.922;6.704;2023-02-01T00:46:33;17.25;;;5.07;;
2860;SDS011;1438;50.922;6.704;2023-02-01T00:48:59;18.58;;;5.57;;
2860;SDS011;1438;50.922;6.704;2023-02-01T00:51:27;18.30;;;5.33;;
2860;SDS011;1438;50.922;6.704;2023-02-01T00:53:54;17.77;;;6.20;;
2860;SDS011;1438;50.922;6.704;2023-02-01T00:56:20;16.42;;;5.00;;
2860;SDS011;1438;50.922;6.704;2023-02-01T00:58:46;11.60;;;4.43;;
2860;SDS011;1438;50.922;6.704;2023-02-01T01:03:39;13.30;;;5.03;;
2860;SDS011;1438;50.922;6.704;2023-02-01T01:06:06;12.90;;;5.68;;
2860;SDS011;1438;50.922;6.704;2023-02-01T01:08:32;9.48;;;4.90;;
2860;SDS011;1438;50.922;6.704;2023-02-01T01:10:59;18.73;;;4.85;;
2860;SDS011;1438;50.922;6.704;2023-02-01T01:13:25;12.00;;;4.55;;
2860;SDS011;1438;50.922;6.704;2023-02-01T01:15:51;17.43;;;4.80;;
2860;SDS011;1438;50.922;6.704;2023-02-01T01:18:16;17.57;;;4.00;;
2860;SDS011;1438;50.922;6.704;2023-02-01T01:20:42;22.17;;;4.40;;
2860;SDS011;1438;50.922;6.704;2023-02-01T01:23:09;14.63;;;4.95;;
2860;SDS011;1438;50.922;6.704;2023-02-01T01:25:39;8.23;;;4.53;;
2860;SDS011;1438;50.922;6.704;2023-02-01T01:28:05;19.85;;;5.53;;
2860;SDS011;1438;50.922;6.704;2023-02-01T01:30:32;16.27;;;5.05;;
2860;SDS011;1438;50.922;6.704;2023-02-01T01:32:58;18.48;;;3.70;;
2860;SDS011;1438;50.922;6.704;2023-02-01T01:35:24;9.98;;;3.40;;
2860;SDS011;1438;50.922;6.704;2023-02-01T01:37:50;15.07;;;5.10;;
2860;SDS011;1438;50.922;6.704;2023-02-01T01:40:16;14.07;;;4.43;;
2860;SDS011;1438;50.922;6.704;2023-02-01T01:42:43;10.30;;;4.18;;
2860;SDS011;1438;50.922;6.704;2023-02-01T01:47:54;12.82;;;4.35;;
2860;SDS011;1438;50.922;6.704;2023-02-01T01:50:22;10.60;;;4.97;;
2860;SDS011;1438;50.922;6.704;2023-02-01T01:52:49;12.45;;;4.75;;
2860;SDS011;1438;50.922;6.704;2023-02-01T01:55:18;17.05;;;4.82;;
2860;SDS011;1438;50.922;6.704;2023-02-01T01:57:46;17.88;;;6.55;;
2860;SDS011;1438;50.922;6.704;2023-02-01T02:00:15;12.75;;;5.45;;
2860;SDS011;1438;50.922;6.704;2023-02-01T02:02:43;17.48;;;5.70;;
2860;SDS011;1438;50.922;6.704;2023-02-01T02:05:09;14.57;;;6.85;;
2860;SDS011;1438;50.922;6.704;2023-02-01T02:07:36;12.27;;;5.13;;
2860;SDS011;1438;50.922;6.704;2023-02-01T02:10:04;19.00;;;6.53;;
2860;SDS011;1438;50.922;6.704;2023-02-01T02:12:32;21.08;;;8.23;;
2860;SDS011;1438;50.922;6.704;2023-02-01T02:14:58;16.17;;;7.20;;
2860;SDS011;1438;50.922;6.704;2023-02-01T02:25:36;21.75;;;7.63;;
2860;SDS011;1438;50.922;6.704;2023-02-01T02:30:48;20.80;;;7.90;;
2860;SDS011;1438;50.922;6.704;2023-02-01T02:33:28;18.77;;;7.75;;
2860;SDS011;1438;50.922;6.704;2023-02-01T02:36:04;19.15;;;7.50;;
2860;SDS011;1438;50.922;6.704;2023-02-01T02:38:33;15.70;;;7.57;;
2860;SDS011;1438;50.922;6.704;2023-02-01T02:46:21;20.52;;;5.82;;
2860;SDS011;1438;50.922;6.704;2023-02-01T02:51:35;17.03;;;8.70;;
2860;SDS011;1438;50.922;6.704;2023-02-01T02:54:23;19.08;;;7.72;;
2860;SDS011;1438;50.922;6.704;2023-02-01T02:57:09;21.00;;;8.05;;
2860;SDS011;1438;50.922;6.704;2023-02-01T02:59:56;15.70;;;6.45;;
2860;SDS011;1438;50.922;6.704;2023-02-01T03:02:42;19.00;;;7.20;;
2860;SDS011;1438;50.922;6.704;2023-02-01T03:05:31;17.23;;;7.30;;
2860;SDS011;1438;50.922;6.704;2023-02-01T03:08:02;11.95;;;5.95;;
2860;SDS011;1438;50.922;6.704;2023-02-01T03:13:04;22.35;;;5.97;;
2860;SDS011;1438;50.922;6.704;2023-02-01T03:15:39;19.75;;;7.47;;
2860;SDS011;1438;50.922;6.704;2023-02-01T03:18:12;10.65;;;6.20;;
2860;SDS011;1438;50.922;6.704;2023-02-01T03:20:39;23.05;;;7.97;;
2860;SDS011;1438;50.922;6.704;2023-02-01T03:23:06;22.33;;;6.90;;
2860;SDS011;1438;50.922;6.704;2023-02-01T03:25:32;14.27;;;6.47;;
2860;SDS011;1438;50.922;6.704;2023-02-01T03:28:02;23.13;;;6.78;;
2860;SDS011;1438;50.922;6.704;2023-02-01T03:30:31;18.20;;;7.05;;
2860;SDS011;1438;50.922;6.704;2023-02-01T03:33:00;16.67;;;6.75;;
2860;SDS011;1438;50.922;6.704;2023-02-01T03:38:08;22.60;;;6.10;;
2860;SDS011;1438;50.922;6.704;2023-02-01T03:40:38;14.10;;;5.78;;
2860;SDS011;1438;50.922;6.704;2023-02-01T03:43:05;15.20;;;5.75;;
2860;SDS011;1438;50.922;6.704;2023-02-01T03:45:34;17.48;;;5.40;;
2860;SDS011;1438;50.922;6.704;2023-02-01T03:48:01;15.18;;;5.47;;
2860;SDS011;1438;50.922;6.704;2023-02-01T03:50:28;17.83;;;5.13;;
2860;SDS011;1438;50.922;6.704;2023-02-01T03:55:23;21.83;;;6.00;;
2860;SDS011;1438;50.922;6.704;2023-02-01T03:57:57;18.48;;;7.00;;
2860;SDS011;1438;50.922;6.704;2023-02-01T04:00:25;16.75;;;6.93;;
2860;SDS011;1438;50.922;6.704;2023-02-01T04:02:52;20.20;;;6.15;;
2860;SDS011;1438;50.922;6.704;2023-02-01T04:05:18;17.80;;;6.07;;
2860;SDS011;1438;50.922;6.704;2023-02-01T04:07:44;14.90;;;6.22;;
2860;SDS011;1438;50.922;6.704;2023-02-01T04:10:11;20.60;;;6.60;;
2860;SDS011;1438;50.922;6.704;2023-02-01T04:12:37;15.75;;;6.82;;
2860;SDS011;1438;50.922;6.704;2023-02-01T04:15:03;21.85;;;6.57;;
2860;SDS011;1438;50.922;6.704;2023-02-01T04:17:29;23.48;;;6.00;;
2860;SDS011;1438;50.922;6.704;2023-02-01T04:19:56;12.45;;;5.32;;
2860;SDS011;1438;50.922;6.704;2023-02-01T04:22:22;23.00;;;6.57;;
2860;SDS011;1438;50.922;6.704;2023-02-01T04:24:48;14.80;;;4.87;;
2860;SDS011;1438;50.922;6.704;2023-02-01T04:27:14;18.00;;;6.53;;
2860;SDS011;1438;50.922;6.704;2023-02-01T04:29:40;14.75;;;6.38;;
2860;SDS011;1438;50.922;6.704;2023-02-01T04:32:06;25.48;;;6.28;;
2860;SDS011;1438;50.922;6.704;2023-02-01T04:34:32;23.47;;;5.60;;
2860;SDS011;1438;50.922;6.704;2023-02-01T04:36:58;26.08;;;6.57;;
2860;SDS011;1438;50.922;6.704;2023-02-01T04:39:24;24.90;;;5.60;;
2860;SDS011;1438;50.922;6.704;2023-02-01T04:41:50;12.32;;;4.40;;
2860;SDS011;1438;50.922;6.704;2023-02-01T04:44:17;19.08;;;4.88;;
2860;SDS011;1438;50.922;6.704;2023-02-01T04:46:44;20.73;;;5.13;;
2860;SDS011;1438;50.922;6.704;2023-02-01T04:49:10;19.02;;;5.05;;
2860;SDS011;1438;50.922;6.704;2023-02-01T04:51:37;17.42;;;6.07;;
2860;SDS011;1438;50.922;6.704;2023-02-01T04:54:03;12.07;;;4.28;;
2860;SDS011;1438;50.922;6.704;2023-02-01T04:56:29;18.83;;;5.45;;
2860;SDS011;1438;50.922;6.704;2023-02-01T04:58:55;14.30;;;4.32;;
2860;SDS011;1438;50.922;6.704;2023-02-01T05:01:21;13.85;;;4.18;;
2860;SDS011;1438;50.922;6.704;2023-02-01T05:03:47;10.95;;;3.03;;
2860;SDS011;1438;50.922;6.704;2023-02-01T05:06:13;13.82;;;4.45;;
2860;SDS011;1438;50.922;6.704;2023-02-01T05:08:39;12.73;;;3.83;;
2860;SDS011;1438;50.922;6.704;2023-02-01T05:11:05;25.40;;;5.22;;
2860;SDS011;1438;50.922;6.704;2023-02-01T05:13:31;16.53;;;4.40;;
2860;SDS011;1438;50.922;6.704;2023-02-01T05:16:13;17.52;;;4.28;;
2860;SDS011;1438;50.922;6.704;2023-02-01T05:18:39;25.65;;;5.10;;
2860;SDS011;1438;50.922;6.704;2023-02-01T05:21:05;16.50;;;4.38;;
2860;SDS011;1438;50.922;6.704;2023-02-01T05:23:31;18.20;;;4.38;;
2860;SDS011;1438;50.922;6.704;2023-02-01T05:26:00;12.68;;;4.03;;
2860;SDS011;1438;50.922;6.704;2023-02-01T05:28:27;15.30;;;4.05;;
2860;SDS011;1438;50.922;6.704;2023-02-01T05:30:53;17.60;;;3.78;;
2860;SDS011;1438;50.922;6.704;2023-02-01T05:33:19;13.00;;;4.22;;
2860;SDS011;1438;50.922;6.704;2023-02-01T05:35:45;20.20;;;3.30;;
2860;SDS011;1438;50.922;6.704;2023-02-01T05:38:11;14.10;;;4.50;;
2860;SDS011;1438;50.922;6.704;2023-02-01T05:40:37;19.33;;;3.40;;
2860;SDS011;1438;50.922;6.704;2023-02-01T05:43:03;19.37;;;3.57;;
2860;SDS011;1438;50.922;6.704;2023-02-01T05:45:29;10.77;;;2.97;;
2860;SDS011;1438;50.922;6.704;2023-02-01T05:47:55;14.50;;;4.25;;
2860;SDS011;1438;50.922;6.704;2023-02-01T05:50:21;14.27;;;3.83;;
2860;SDS011;1438;50.922;6.704;2023-02-01T05:52:47;10.45;;;2.72;;
2860;SDS011;1438;50.922;6.704;2023-02-01T05:55:13;13.18;;;3.83;;
2860;SDS011;1438;50.922;6.704;2023-02-01T05:57:39;22.20;;;3.55;;
2860;SDS011;1438;50.922;6.704;2023-02-01T06:00:05;12.23;;;2.90;;
2860;SDS011;1438;50.922;6.704;2023-02-01T06:02:31;16.30;;;4.70;;
2860;SDS011;1438;50.922;6.704;2023-02-01T06:04:57;8.75;;;3.17;;
2860;SDS011;1438;50.922;6.704;2023-02-01T06:07:23;21.00;;;4.10;;
2860;SDS011;1438;50.922;6.704;2023-02-01T06:09:49;12.43;;;3.30;;
2860;SDS011;1438;50.922;6.704;2023-02-01T06:12:15;18.90;;;3.93;;
2860;SDS011;1438;50.922;6.704;2023-02-01T06:14:41;15.00;;;3.60;;
2860;SDS011;1438;50.922;6.704;2023-02-01T06:17:08;14.77;;;3.58;;
2860;SDS011;1438;50.922;6.704;2023-02-01T06:19:34;25.45;;;5.00;;
2860;SDS011;1438;50.922;6.704;2023-02-01T06:22:00;12.73;;;4.28;;
2860;SDS011;1438;50.922;6.704;2023-02-01T06:24:26;11.02;;;3.40;;
2860;SDS011;1438;50.922;6.704;2023-02-01T06:26:52;17.10;;;3.90;;
2860;SDS011;1438;50.922;6.704;2023-02-01T06:29:18;15.63;;;3.65;;
2860;SDS011;1438;50.922;6.704;2023-02-01T06:31:44;9.90;;;3.00;;
2860;SDS011;1438;50.922;6.704;2023-02-01T06:34:10;8.40;;;3.20;;
2860;SDS011;1438;50.922;6.704;2023-02-01T06:36:36;10.73;;;3.07;;
2860;SDS011;1438;50.922;6.704;2023-02-01T06:39:02;13.60;;;3.75;;
2860;SDS011;1438;50.922;6.704;2023-02-01T06:41:28;16.55;;;3.88;;
2860;SDS011;1438;50.922;6.704;2023-02-01T06:43:54;16.58;;;3.95;;
2860;SDS011;1438;50.922;6.704;2023-02-01T06:46:20;12.50;;;4.30;;
2860;SDS011;1438;50.922;6.704;2023-02-01T06:48:46;24.55;;;5.00;;
2860;SDS011;1438;50.922;6.704;2023-02-01T06:51:21;18.23;;;3.90;;
2860;SDS011;1438;50.922;6.704;2023-02-01T06:53:48;12.80;;;3.97;;
2860;SDS011;1438;50.922;6.704;2023-02-01T06:56:14;9.18;;;3.42;;
2860;SDS011;1438;50.922;6.704;2023-02-01T06:58:40;15.70;;;3.95;;
2860;SDS011;1438;50.922;6.704;2023-02-01T07:01:06;12.13;;;3.85;;
2860;SDS011;1438;50.922;6.704;2023-02-01T07:03:32;16.42;;;3.92;;
2860;SDS011;1438;50.922;6.704;2023-02-01T07:05:58;11.18;;;4.05;;
2860;SDS011;1438;50.922;6.704;2023-02-01T07:08:26;16.05;;;3.92;;
2860;SDS011;1438;50.922;6.704;2023-02-01T07:10:52;15.90;;;4.35;;
2860;SDS011;1438;50.922;6.704;2023-02-01T07:13:18;8.90;;;2.90;;
2860;SDS011;1438;50.922;6.704;2023-02-01T07:15:44;13.10;;;3.35;;
2860;SDS011;1438;50.922;6.704;2023-02-01T07:18:14;12.50;;;3.63;;
2860;SDS011;1438;50.922;6.704;2023-02-01T07:20:40;14.52;;;4.63;;
2860;SDS011;1438;50.922;6.704;2023-02-01T07:23:08;19.35;;;4.32;;
2860;SDS011;1438;50.922;6.704;2023-02-01T07:25:35;14.63;;;3.97;;
2860;SDS011;1438;50.922;6.704;2023-02-01T07:28:01;19.05;;;4.50;;
2860;SDS011;1438;50.922;6.704;2023-02-01T07:30:27;13.93;;;2.70;;
2860;SDS011;1438;50.922;6.704;2023-02-01T07:32:53;12.95;;;4.03;;
2860;SDS011;1438;50.922;6.704;2023-02-01T07:35:19;15.90;;;3.80;;
2860;SDS011;1438;50.922;6.704;2023-02-01T07:37:45;17.10;;;3.97;;
2860;SDS011;1438;50.922;6.704;2023-02-01T07:40:11;17.13;;;4.10;;
2860;SDS011;1438;50.922;6.704;2023-02-01T07:42:37;11.98;;;3.45;;
2860;SDS011;1438;50.922;6.704;2023-02-01T07:45:03;15.35;;;3.97;;
2860;SDS011;1438;50.922;6.704;2023-02-01T07:47:29;9.95;;;4.05;;
2860;SDS011;1438;50.922;6.704;2023-02-01T07:49:55;5.10;;;2.33;;
2860;SDS011;1438;50.922;6.704;2023-02-01T07:52:21;14.13;;;3.47;;
2860;SDS011;1438;50.922;6.704;2023-02-01T07:54:47;22.67;;;4.20;;
2860;SDS011;1438;50.922;6.704;2023-02-01T07:57:13;18.60;;;3.85;;
2860;SDS011;1438;50.922;6.704;2023-02-01T07:59:39;11.70;;;4.10;;
2860;SDS011;1438;50.922;6.704;2023-02-01T08:02:25;19.55;;;4.55;;
2860;SDS011;1438;50.922;6.704;2023-02-01T08:04:51;7.67;;;3.17;;
2860;SDS011;1438;50.922;6.704;2023-02-01T08:07:17;15.93;;;4.37;;
2860;SDS011;1438;50.922;6.704;2023-02-01T08:09:43;15.43;;;3.80;;
2860;SDS011;1438;50.922;6.704;2023-02-01T08:12:09;19.47;;;5.83;;
2860;SDS011;1438;50.922;6.704;2023-02-01T08:14:35;13.33;;;3.70;;
2860;SDS011;1438;50.922;6.704;2023-02-01T08:17:01;17.35;;;4.78;;
2860;SDS011;1438;50.922;6.704;2023-02-01T08:19:27;18.40;;;5.33;;
2860;SDS011;1438;50.922;6.704;2023-02-01T08:21:53;11.83;;;3.23;;
2860;SDS011;1438;50.922;6.704;2023-02-01T08:24:19;14.87;;;4.00;;
2860;SDS011;1438;50.922;6.704;2023-02-01T08:26:46;22.20;;;3.90;;
2860;SDS011;1438;50.922;6.704;2023-02-01T08:29:12;18.80;;;3.77;;
2860;SDS011;1438;50.922;6.704;2023-02-01T08:31:38;22.92;;;4.00;;
2860;SDS011;1438;50.922;6.704;2023-02-01T08:34:08;17.02;;;3.78;;
2860;SDS011;1438;50.922;6.704;2023-02-01T08:36:35;11.68;;;3.45;;
2860;SDS011;1438;50.922;6.704;2023-02-01T08:39:03;11.70;;;3.00;;
2860;SDS011;1438;50.922;6.704;2023-02-01T08:41:33;15.10;;;3.45;;
2860;SDS011;1438;50.922;6.704;2023-02-01T08:43:59;10.63;;;3.60;;
2860;SDS011;1438;50.922;6.704;2023-02-01T08:46:26;13.95;;;3.83;;
2860;SDS011;1438;50.922;6.704;2023-02-01T08:48:52;21.58;;;4.53;;
2860;SDS011;1438;50.922;6.704;2023-02-01T08:51:19;13.98;;;4.03;;
2860;SDS011;1438;50.922;6.704;2023-02-01T08:53:45;17.17;;;4.20;;
2860;SDS011;1438;50.922;6.704;2023-02-01T08:56:12;12.20;;;3.15;;
2860;SDS011;1438;50.922;6.704;2023-02-01T08:58:38;9.48;;;3.03;;
2860;SDS011;1438;50.922;6.704;2023-02-01T09:01:08;13.82;;;3.92;;
2860;SDS011;1438;50.922;6.704;2023-02-01T09:03:34;9.48;;;3.33;;
2860;SDS011;1438;50.922;6.704;2023-02-01T09:06:04;18.90;;;3.70;;
2860;SDS011;1438;50.922;6.704;2023-02-01T09:08:30;13.05;;;5.40;;
2860;SDS011;1438;50.922;6.704;2023-02-01T09:11:02;15.63;;;4.05;;
2860;SDS011;1438;50.922;6.704;2023-02-01T09:13:29;16.77;;;3.67;;
2860;SDS011;1438;50.922;6.704;2023-02-01T09:15:55;14.75;;;3.22;;
2860;SDS011;1438;50.922;6.704;2023-02-01T09:18:21;11.77;;;3.67;;
2860;SDS011;1438;50.922;6.704;2023-02-01T09:20:47;12.85;;;3.80;;
2860;SDS011;1438;50.922;6.704;2023-02-01T09:23:13;12.05;;;3.88;;
2860;SDS011;1438;50.922;6.704;2023-02-01T09:25:39;16.88;;;2.83;;
2860;SDS011;1438;50.922;6.704;2023-02-01T09:28:05;21.95;;;3.58;;
2860;SDS011;1438;50.922;6.704;2023-02-01T09:30:31;9.40;;;3.35;;
2860;SDS011;1438;50.922;6.704;2023-02-01T09:32:57;7.65;;;3.03;;
2860;SDS011;1438;50.922;6.704;2023-02-01T09:35:23;12.20;;;3.30;;
2860;SDS011;1438;50.922;6.704;2023-02-01T09:37:50;6.55;;;2.95;;
2860;SDS011;1438;50.922;6.704;2023-02-01T09:40:17;14.20;;;3.25;;
2860;SDS011;1438;50.922;6.704;2023-02-01T09:42:46;15.30;;;3.55;;
2860;SDS011;1438;50.922;6.704;2023-02-01T09:47:42;21.27;;;3.30;;
2860;SDS011;1438;50.922;6.704;2023-02-01T09:50:12;12.25;;;3.75;;
2860;SDS011;1438;50.922;6.704;2023-02-01T09:55:18;15.70;;;4.40;;
2860;SDS011;1438;50.922;6.704;2023-02-01T09:57:49;18.88;;;4.28;;
2860;SDS011;1438;50.922;6.704;2023-02-01T10:00:19;16.70;;;3.67;;
2860;SDS011;1438;50.922;6.704;2023-02-01T10:02:46;22.90;;;3.83;;
2860;SDS011;1438;50.922;6.704;2023-02-01T10:05:13;13.13;;;3.60;;
2860;SDS011;1438;50.922;6.704;2023-02-01T10:07:47;14.70;;;4.50;;
2860;SDS011;1438;50.922;6.704;2023-02-01T10:10:18;10.63;;;3.00;;
2860;SDS011;1438;50.922;6.704;2023-02-01T10:15:22;13.38;;;2.15;;
2860;SDS011;1438;50.922;6.704;2023-02-01T10:20:30;11.73;;;3.28;;
2860;SDS011;1438;50.922;6.704;2023-02-01T10:23:08;13.20;;;3.40;;
2860;SDS011;1438;50.922;6.704;2023-02-01T10:28:06;11.93;;;3.00;;
2860;SDS011;1438;50.922;6.704;2023-02-01T10:30:40;12.10;;;2.90;;
2860;SDS011;1438;50.922;6.704;2023-02-01T10:33:14;21.10;;;5.00;;
2860;SDS011;1438;50.922;6.704;2023-02-01T10:35:41;26.60;;;3.95;;
2860;SDS011;1438;50.922;6.704;2023-02-01T10:38:12;15.48;;;3.45;;
2860;SDS011;1438;50.922;6.704;2023-02-01T10:40:42;15.45;;;2.90;;
2860;SDS011;1438;50.922;6.704;2023-02-01T10:43:08;13.30;;;3.63;;
2860;SDS011;1438;50.922;6.704;2023-02-01T10:45:35;20.40;;;3.97;;
2860;SDS011;1438;50.922;6.704;2023-02-01T10:48:02;7.95;;;2.90;;
2860;SDS011;1438;50.922;6.704;2023-02-01T10:50:46;15.02;;;3.50;;
2860;SDS011;1438;50.922;6.704;2023-02-01T10:58:28;12.20;;;3.20;;
2860;SDS011;1438;50.922;6.704;2023-02-01T11:00:57;9.13;;;2.97;;
2860;SDS011;1438;50.922;6.704;2023-02-01T11:03:30;13.23;;;3.85;;
2860;SDS011;1438;50.922;6.704;2023-02-01T11:05:57;10.52;;;3.08;;
2860;SDS011;1438;50.922;6.704;2023-02-01T11:08:24;13.85;;;2.90;;
2860;SDS011;1438;50.922;6.704;2023-02-01T11:10:57;24.48;;;3.50;;
2860;SDS011;1438;50.922;6.704;2023-02-01T11:13:24;8.45;;;4.03;;
2860;SDS011;1438;50.922;6.704;2023-02-01T11:15:56;7.35;;;3.45;;
2860;SDS011;1438;50.922;6.704;2023-02-01T11:18:30;10.05;;;3.22;;
2860;SDS011;1438;50.922;6.704;2023-02-01T11:20:56;11.23;;;3.20;;
2860;SDS011;1438;50.922;6.704;2023-02-01T11:23:25;11.35;;;3.63;;
2860;SDS011;1438;50.922;6.704;2023-02-01T11:25:53;8.82;;;3.13;;
2860;SDS011;1438;50.922;6.704;2023-02-01T11:28:20;18.55;;;4.18;;
2860;SDS011;1438;50.922;6.704;2023-02-01T11:30:47;7.75;;;2.15;;
2860;SDS011;1438;50.922;6.704;2023-02-01T11:33:14;8.55;;;3.05;;
2860;SDS011;1438;50.922;6.704;2023-02-01T11:35:41;11.85;;;3.22;;
2860;SDS011;1438;50.922;6.704;2023-02-01T11:38:19;11.48;;;3.30;;
2860;SDS011;1438;50.922;6.704;2023-02-01T11:40:45;8.02;;;3.25;;
2860;SDS011;1438;50.922;6.704;2023-02-01T11:45:40;10.52;;;3.40;;
2860;SDS011;1438;50.922;6.704;2023-02-01T11:48:08;9.20;;;2.90;;
2860;SDS011;1438;50.922;6.704;2023-02-01T11:50:37;14.10;;;2.80;;
2860;SDS011;1438;50.922;6.704;2023-02-01T11:53:16;13.13;;;3.78;;
2860;SDS011;1438;50.922;6.704;2023-02-01T11:56:32;15.15;;;3.58;;
2860;SDS011;1438;50.922;6.704;2023-02-01T11:58:54;8.75;;;3.60;;
2860;SDS011;1438;50.922;6.704;2023-02-01T12:06:54;12.50;;;3.30;;
2860;SDS011;1438;50.922;6.704;2023-02-01T12:19:55;13.50;;;3.67;;
2860;SDS011;1438;50.922;6.704;2023-02-01T12:22:41;14.63;;;3.03;;
2860;SDS011;1438;50.922;6.704;2023-02-01T12:33:37;12.20;;;3.80;;
2860;SDS011;1438;50.922;6.704;2023-02-01T12:45:59;13.77;;;3.47;;
2860;SDS011;1438;50.922;6.704;2023-02-01T12:48:31;10.35;;;3.35;;
2860;SDS011;1438;50.922;6.704;2023-02-01T12:51:07;7.82;;;2.40;;
2860;SDS011;1438;50.922;6.704;2023-02-01T12:53:45;10.45;;;2.67;;
2860;SDS011;1438;50.922;6.704;2023-02-01T12:56:13;11.63;;;2.60;;
2860;SDS011;1438;50.922;6.704;2023-02-01T12:58:42;14.15;;;3.47;;
2860;SDS011;1438;50.922;6.704;2023-02-01T13:01:19;14.85;;;4.18;;
2860;SDS011;1438;50.922;6.704;2023-02-01T13:03:54;15.27;;;3.38;;
2860;SDS011;1438;50.922;6.704;2023-02-01T13:09:01;9.80;;;3.03;;
2860;SDS011;1438;50.922;6.704;2023-02-01T13:11:39;14.93;;;3.72;;
2860;SDS011;1438;50.922;6.704;2023-02-01T13:14:10;8.07;;;3.10;;
2860;SDS011;1438;50.922;6.704;2023-02-01T13:16:39;10.35;;;3.15;;
2860;SDS011;1438;50.922;6.704;2023-02-01T13:19:13;8.95;;;3.03;;
2860;SDS011;1438;50.922;6.704;2023-02-01T13:21:48;13.50;;;3.20;;
2860;SDS011;1438;50.922;6.704;2023-02-01T13:24:24;10.95;;;3.30;;
2860;SDS011;1438;50.922;6.704;2023-02-01T13:26:53;7.93;;;2.60;;
2860;SDS011;1438;50.922;6.704;2023-02-01T13:29:20;9.00;;;2.53;;
2860;SDS011;1438;50.922;6.704;2023-02-01T13:37:20;20.63;;;3.35;;
2860;SDS011;1438;50.922;6.704;2023-02-01T13:42:22;9.75;;;3.15;;
2860;SDS011;1438;50.922;6.704;2023-02-01T13:44:56;12.65;;;3.15;;
2860;SDS011;1438;50.922;6.704;2023-02-01T13:47:24;13.65;;;3.30;;
2860;SDS011;1438;50.922;6.704;2023-02-01T13:49:52;14.50;;;4.15;;
2860;SDS011;1438;50.922;6.704;2023-02-01T13:52:26;10.38;;;4.10;;
2860;SDS011;1438;50.922;6.704;2023-02-01T13:57:38;5.85;;;2.20;;
2860;SDS011;1438;50.922;6.704;2023-02-01T14:00:06;14.82;;;3.60;;
2860;SDS011;1438;50.922;6.704;2023-02-01T14:05:10;5.95;;;2.80;;
2860;SDS011;1438;50.922;6.704;2023-02-01T14:07:36;12.68;;;2.65;;
2860;SDS011;1438;50.922;6.704;2023-02-01T14:13:19;10.35;;;2.85;;
2860;SDS011;1438;50.922;6.704;2023-02-01T14:16:10;6.90;;;2.70;;
2860;SDS011;1438;50.922;6.704;2023-02-01T14:21:18;12.55;;;2.65;;
2860;SDS011;1438;50.922;6.704;2023-02-01T14:24:32;19.52;;;3.95;;
2860;SDS011;1438;50.922;6.704;2023-02-01T14:26:48;13.05;;;2.40;;
2860;SDS011;1438;50.922;6.704;2023-02-01T14:34:38;11.68;;;2.03;;
2860;SDS011;1438;50.922;6.704;2023-02-01T14:37:08;20.13;;;2.45;;
2860;SDS011;1438;50.922;6.704;2023-02-01T14:44:47;15.38;;;3.20;;
2860;SDS011;1438;50.922;6.704;2023-02-01T14:47:31;11.27;;;2.75;;
2860;SDS011;1438;50.922;6.704;2023-02-01T14:50:00;6.50;;;2.25;;
2860;SDS011;1438;50.922;6.704;2023-02-01T14:52:35;4.78;;;1.63;;
2860;SDS011;1438;50.922;6.704;2023-02-01T14:55:06;9.25;;;4.18;;
2860;SDS011;1438;50.922;6.704;2023-02-01T14:57:36;8.93;;;3.00;;
2860;SDS011;1438;50.922;6.704;2023-02-01T15:00:07;12.02;;;2.10;;
2860;SDS011;1438;50.922;6.704;2023-02-01T15:02:33;11.57;;;2.92;;
2860;SDS011;1438;50.922;6.704;2023-02-01T15:05:00;4.35;;;2.47;;
2860;SDS011;1438;50.922;6.704;2023-02-01T15:07:27;15.80;;;1.83;;
2860;SDS011;1438;50.922;6.704;2023-02-01T15:09:54;10.38;;;2.60;;
2860;SDS011;1438;50.922;6.704;2023-02-01T15:12:23;7.85;;;2.42;;
2860;SDS011;1438;50.922;6.704;2023-02-01T15:15:11;12.50;;;2.40;;
2860;SDS011;1438;50.922;6.704;2023-02-01T15:17:38;5.60;;;2.30;;
2860;SDS011;1438;50.922;6.704;2023-02-01T15:20:14;13.52;;;2.92;;
2860;SDS011;1438;50.922;6.704;2023-02-01T15:22:41;10.90;;;2.83;;
2860;SDS011;1438;50.922;6.704;2023-02-01T15:25:18;11.43;;;3.40;;
2860;SDS011;1438;50.922;6.704;2023-02-01T15:27:44;9.48;;;2.30;;
2860;SDS011;1438;50.922;6.704;2023-02-01T15:30:23;8.82;;;1.60;;
2860;SDS011;1438;50.922;6.704;2023-02-01T15:32:51;14.35;;;3.58;;
2860;SDS011;1438;50.922;6.704;2023-02-01T15:43:30;8.45;;;2.20;;
2860;SDS011;1438;50.922;6.704;2023-02-01T15:46:00;9.68;;;3.13;;
2860;SDS011;1438;50.922;6.704;2023-02-01T15:48:34;8.98;;;2.33;;
2860;SDS011;1438;50.922;6.704;2023-02-01T15:51:01;15.38;;;3.15;;
2860;SDS011;1438;50.922;6.704;2023-02-01T15:53:27;10.82;;;2.40;;
2860;SDS011;1438;50.922;6.704;2023-02-01T15:55:58;7.03;;;2.30;;
2860;SDS011;1438;50.922;6.704;2023-02-01T15:58:25;9.65;;;2.75;;
2860;SDS011;1438;50.922;6.704;2023-02-01T16:00:53;7.65;;;1.75;;
2860;SDS011;1438;50.922;6.704;2023-02-01T16:03:24;15.15;;;5.07;;
2860;SDS011;1438;50.922;6.704;2023-02-01T16:06:10;12.20;;;3.28;;
2860;SDS011;1438;50.922;6.704;2023-02-01T16:08:36;9.50;;;2.67;;
2860;SDS011;1438;50.922;6.704;2023-02-01T16:13:34;14.52;;;2.97;;
2860;SDS011;1438;50.922;6.704;2023-02-01T16:16:01;9.25;;;2.83;;
2860;SDS011;1438;50.922;6.704;2023-02-01T16:18:27;11.57;;;2.60;;
2860;SDS011;1438;50.922;6.704;2023-02-01T16:20:53;11.43;;;2.97;;
2860;SDS011;1438;50.922;6.704;2023-02-01T16:23:19;17.35;;;3.28;;
2860;SDS011;1438;50.922;6.704;2023-02-01T16:25:45;12.25;;;3.08;;
2860;SDS011;1438;50.922;6.704;2023-02-01T16:28:11;12.25;;;3.05;;
2860;SDS011;1438;50.922;6.704;2023-02-01T16:30:37;7.07;;;2.55;;
2860;SDS011;1438;50.922;6.704;2023-02-01T16:33:04;10.80;;;3.10;;
2860;SDS011;1438;50.922;6.704;2023-02-01T16:35:32;6.28;;;2.33;;
2860;SDS011;1438;50.922;6.704;2023-02-01T16:38:04;13.25;;;3.70;;
2860;SDS011;1438;50.922;6.704;2023-02-01T16:40:33;16.60;;;4.03;;
2860;SDS011;1438;50.922;6.704;2023-02-01T16:42:59;13.75;;;3.22;;
2860;SDS011;1438;50.922;6.704;2023-02-01T16:45:25;9.60;;;3.60;;
2860;SDS011;1438;50.922;6.704;2023-02-01T16:47:53;12.10;;;3.50;;
2860;SDS011;1438;50.922;6.704;2023-02-01T16:50:20;13.85;;;3.65;;
2860;SDS011;1438;50.922;6.704;2023-02-01T16:52:47;14.05;;;3.10;;
2860;SDS011;1438;50.922;6.704;2023-02-01T16:55:13;11.77;;;3.05;;
2860;SDS011;1438;50.922;6.704;2023-02-01T16:57:40;12.88;;;3.42;;
2860;SDS011;1438;50.922;6.704;2023-02-01T17:00:07;10.50;;;4.70;;
2860;SDS011;1438;50.922;6.704;2023-02-01T17:02:33;15.57;;;4.18;;
2860;SDS011;1438;50.922;6.704;2023-02-01T17:04:59;11.88;;;3.17;;
2860;SDS011;1438;50.922;6.704;2023-02-01T17:07:25;14.33;;;3.70;;
2860;SDS011;1438;50.922;6.704;2023-02-01T17:09:51;18.05;;;4.75;;
2860;SDS011;1438;50.922;6.704;2023-02-01T17:12:21;13.48;;;4.55;;
2860;SDS011;1438;50.922;6.704;2023-02-01T17:14:47;13.13;;;3.85;;
2860;SDS011;1438;50.922;6.704;2023-02-01T17:17:13;13.90;;;4.87;;
2860;SDS011;1438;50.922;6.704;2023-02-01T17:19:40;10.93;;;3.22;;